Terminal Aerodrome Forecast
Issued by NWS

Home | Current Version | Previous Version | Text Only | Print | Product List | Glossary On
Versions: 1 2 3 4 5 6 7 8 9 10 11 12 13 14 15 16 17 18
000
FTUS42 KMLB 301700
TAFSFB
TAF
KSFB 301734Z 3018/0118 33007KT P6SM VCTS SCT025CB BKN060
      TEMPO 3018/3020 3SM SHRA BKN025
     FM302000 32008KT P6SM SCT020 OVC040
      TEMPO 3020/3023 2SM SHRA BKN020
     FM010000 30004KT P6SM VCSH SCT020 BKN040
     FM010300 32003KT P6SM SCT020 SCT100 BKN250
     FM011400 34005KT P6SM SCT015 BKN035=

USA.gov is the U.S. government's official web portal to all federal, state and local government web resources and services.